Time;durP1;ratioP1;P1;durP2;ratioP2;P2;SDS_P1;SDS_P2;PMS_P1;PMS_P2;Temp;Humidity;BMP_temperature;BMP_pressure;BME280_temperature;BME280_humidity;BME280_pressure;Samples;Min_cycle;Max_cycle;Signal;HPM_P1;HPM_P2
2021/03/31 00:00:20;;;;;;;24.60;23.00;;;;;;;;;;5074547;28;20789;-74
2021/03/31 00:02:48;;;;;;;24.10;22.50;;;;;;;;;;5056380;28;20909;-75
2021/03/31 00:05:15;;;;;;;24.73;23.13;;;;;;;;;;5074451;28;20448;-75
2021/03/31 00:07:42;;;;;;;25.40;23.50;;;;;;;;;;5074419;28;20412;-75
2021/03/31 00:10:14;;;;;;;24.93;23.23;;;;;;;;;;5056724;28;20492;-75
2021/03/31 00:12:41;;;;;;;26.00;24.20;;;;;;;;;;5074253;28;20758;-75
2021/03/31 00:15:09;;;;;;;26.00;24.10;;;;;;;;;;5074474;28;20434;-75
2021/03/31 00:17:36;;;;;;;24.63;23.03;;;;;;;;;;5074239;28;20938;-75
2021/03/31 00:20:03;;;;;;;24.90;23.40;;;;;;;;;;5074117;28;20505;-75
2021/03/31 00:22:30;;;;;;;25.17;23.57;;;;;;;;;;5074154;28;20437;-74
2021/03/31 00:24:57;;;;;;;25.87;23.97;;;;;;;;;;5074386;28;20452;-74
2021/03/31 00:27:25;;;;;;;25.57;23.97;;;;;;;;;;5074131;28;20923;-75
2021/03/31 00:29:51;;;;;;;27.27;25.00;;;;;;;;;;5073966;28;20814;-75
2021/03/31 00:32:18;;;;;;;29.53;27.30;;;;;;;;;;5074045;28;20442;-74
2021/03/31 00:34:45;;;;;;;24.57;22.97;;;;;;;;;;5074441;28;20796;-75
2021/03/31 00:37:12;;;;;;;25.20;23.60;;;;;;;;;;5073980;28;20416;-75
2021/03/31 00:39:39;;;;;;;24.90;23.20;;;;;;;;;;5074238;28;20441;-75
2021/03/31 00:42:07;;;;;;;25.90;23.90;;;;;;;;;;5056141;28;21005;-74
2021/03/31 00:44:35;;;;;;;24.90;23.23;;;;;;;;;;5074163;28;20788;-74
2021/03/31 00:47:06;;;;;;;25.57;23.87;;;;;;;;;;5074122;28;20415;-74
2021/03/31 00:49:33;;;;;;;27.00;25.20;;;;;;;;;;5073976;28;20522;-74
2021/03/31 00:52:00;;;;;;;26.53;24.83;;;;;;;;;;5073675;28;20409;-75
2021/03/31 00:54:27;;;;;;;26.53;24.30;;;;;;;;;;5073676;28;20919;-75
2021/03/31 00:56:54;;;;;;;26.60;24.77;;;;;;;;;;5073549;28;20904;-75
2021/03/31 00:59:20;;;;;;;27.23;24.97;;;;;;;;;;5056427;28;20799;-75
2021/03/31 01:01:49;;;;;;;27.00;24.83;;;;;;;;;;5073913;28;20412;-75
2021/03/31 01:04:16;;;;;;;25.97;24.00;;;;;;;;;;5055955;28;20750;-75
2021/03/31 01:06:43;;;;;;;25.47;23.77;;;;;;;;;;5073888;28;20777;-75
2021/03/31 01:09:10;;;;;;;27.70;25.70;;;;;;;;;;5073807;28;20489;-75
2021/03/31 01:11:45;;;;;;;26.00;24.00;;;;;;;;;;5055789;28;20432;-75
2021/03/31 01:14:15;;;;;;;27.37;25.50;;;;;;;;;;5073842;28;20434;-75
2021/03/31 01:16:44;;;;;;;27.87;25.67;;;;;;;;;;5073442;28;20438;-75
2021/03/31 01:19:26;;;;;;;27.93;25.87;;;;;;;;;;5073269;28;20460;-75
2021/03/31 01:22:12;;;;;;;26.33;24.60;;;;;;;;;;5073054;28;20469;-75
2021/03/31 01:25:11;;;;;;;27.63;25.37;;;;;;;;;;5073080;28;20468;-75
2021/03/31 01:27:42;;;;;;;27.10;25.10;;;;;;;;;;5073292;28;20453;-74
2021/03/31 01:30:13;;;;;;;27.10;25.17;;;;;;;;;;5073560;28;20489;-75
2021/03/31 01:33:03;;;;;;;26.07;24.27;;;;;;;;;;5073360;28;20541;-75
2021/03/31 01:35:32;;;;;;;26.57;24.67;;;;;;;;;;5073824;28;20449;-75
2021/03/31 01:38:02;;;;;;;27.07;25.03;;;;;;;;;;5073597;28;20437;-75
2021/03/31 01:40:30;;;;;;;27.30;25.10;;;;;;;;;;5073245;28;20452;-75
2021/03/31 01:42:59;;;;;;;27.50;25.33;;;;;;;;;;5073451;28;20411;-75
2021/03/31 01:45:27;;;;;;;27.00;24.97;;;;;;;;;;5073358;28;20441;-75
2021/03/31 01:47:55;;;;;;;28.10;25.93;;;;;;;;;;5073540;28;20449;-74
2021/03/31 01:50:22;;;;;;;26.70;24.70;;;;;;;;;;5073341;28;20801;-75
2021/03/31 01:52:50;;;;;;;27.50;25.40;;;;;;;;;;5072898;28;20431;-74
2021/03/31 01:55:18;;;;;;;27.47;25.10;;;;;;;;;;5073364;28;20420;-74
2021/03/31 01:57:45;;;;;;;27.93;25.73;;;;;;;;;;5055589;28;20411;-74
2021/03/31 02:00:14;;;;;;;29.10;26.60;;;;;;;;;;5055520;28;20444;-75
2021/03/31 02:02:42;;;;;;;28.73;26.23;;;;;;;;;;5072844;28;20444;-75
2021/03/31 02:05:10;;;;;;;28.07;25.90;;;;;;;;;;5073223;28;20437;-75
2021/03/31 02:07:39;;;;;;;28.27;26.07;;;;;;;;;;5072755;28;20902;-74
2021/03/31 02:10:09;;;;;;;29.13;26.70;;;;;;;;;;5073506;28;20458;-75
2021/03/31 02:12:37;;;;;;;28.83;26.53;;;;;;;;;;5073350;28;20441;-74
2021/03/31 02:15:04;;;;;;;28.17;25.77;;;;;;;;;;5072958;28;20420;-75
2021/03/31 02:17:31;;;;;;;27.53;25.10;;;;;;;;;;5073167;28;20420;-74
2021/03/31 02:19:59;;;;;;;28.80;26.50;;;;;;;;;;5073019;28;20484;-75
2021/03/31 02:22:27;;;;;;;28.17;26.00;;;;;;;;;;5073133;28;20428;-74
2021/03/31 02:24:55;;;;;;;28.30;25.83;;;;;;;;;;5072852;28;20434;-75
2021/03/31 02:27:23;;;;;;;27.23;25.03;;;;;;;;;;5072652;28;20440;-74
2021/03/31 02:29:51;;;;;;;29.10;26.60;;;;;;;;;;5072889;28;20495;-74
2021/03/31 02:32:19;;;;;;;28.87;26.47;;;;;;;;;;5073028;28;20812;-75
2021/03/31 02:34:47;;;;;;;29.60;27.20;;;;;;;;;;5073130;28;20448;-74
2021/03/31 02:37:16;;;;;;;31.73;29.13;;;;;;;;;;5073455;28;20438;-74
2021/03/31 02:39:43;;;;;;;30.00;27.70;;;;;;;;;;5076286;28;20466;-74
2021/03/31 02:42:11;;;;;;;29.47;27.13;;;;;;;;;;5075969;28;20983;-74
2021/03/31 02:44:41;;;;;;;29.03;26.53;;;;;;;;;;5076339;28;20437;-74
2021/03/31 02:47:10;;;;;;;28.87;26.30;;;;;;;;;;5075769;28;20423;-74
2021/03/31 02:49:39;;;;;;;30.97;28.33;;;;;;;;;;5075728;28;20857;-74
2021/03/31 02:52:07;;;;;;;29.27;26.97;;;;;;;;;;5075918;28;20915;-74
2021/03/31 02:54:34;;;;;;;29.00;26.40;;;;;;;;;;5076377;28;20412;-75
2021/03/31 02:57:00;;;;;;;28.80;26.13;;;;;;;;;;5075852;28;20445;-74
2021/03/31 02:59:27;;;;;;;29.10;26.60;;;;;;;;;;5075923;28;20438;-74
2021/03/31 03:01:55;;;;;;;28.03;25.80;;;;;;;;;;5076097;28;20498;-74
2021/03/31 03:04:23;;;;;;;28.57;26.27;;;;;;;;;;5075823;28;20437;-75
2021/03/31 03:06:50;;;;;;;27.83;25.73;;;;;;;;;;5075754;28;20430;-75
2021/03/31 03:09:17;;;;;;;31.83;29.00;;;;;;;;;;5076160;28;20499;-74
2021/03/31 03:11:44;;;;;;;30.87;28.27;;;;;;;;;;5075610;28;21007;-74
2021/03/31 03:14:11;;;;;;;31.00;28.50;;;;;;;;;;5075905;28;20437;-74
2021/03/31 03:16:38;;;;;;;31.13;28.43;;;;;;;;;;5075944;28;20755;-74
2021/03/31 03:19:06;;;;;;;27.67;25.48;;;;;;;;;;5075780;28;20892;-74
2021/03/31 03:21:34;;;;;;;29.43;26.93;;;;;;;;;;5075812;28;20222;-75
2021/03/31 03:24:00;;;;;;;28.30;25.60;;;;;;;;;;5075637;28;20440;-75
2021/03/31 03:26:28;;;;;;;28.80;26.20;;;;;;;;;;5075671;28;20404;-74
2021/03/31 03:28:56;;;;;;;30.43;27.80;;;;;;;;;;5075264;28;20526;-74
2021/03/31 03:31:23;;;;;;;29.83;27.07;;;;;;;;;;5075397;28;20506;-74
2021/03/31 03:33:50;;;;;;;29.00;26.50;;;;;;;;;;5075187;28;20405;-75
2021/03/31 03:36:18;;;;;;;29.97;27.53;;;;;;;;;;5075024;28;20415;-74
2021/03/31 03:38:45;;;;;;;29.10;26.80;;;;;;;;;;5057722;28;20442;-75
2021/03/31 03:41:13;;;;;;;29.53;27.13;;;;;;;;;;5074980;28;20452;-74
2021/03/31 03:43:41;;;;;;;29.63;27.23;;;;;;;;;;5075299;28;20455;-74
2021/03/31 03:46:08;;;;;;;30.03;27.50;;;;;;;;;;5074820;28;20448;-74
2021/03/31 03:48:35;;;;;;;30.20;27.83;;;;;;;;;;5074694;28;20437;-75
2021/03/31 03:51:05;;;;;;;27.30;25.10;;;;;;;;;;5074870;28;20441;-74
2021/03/31 03:53:33;;;;;;;28.00;25.70;;;;;;;;;;5075750;28;20415;-74
2021/03/31 03:56:00;;;;;;;27.23;25.03;;;;;;;;;;5075084;28;20414;-74
2021/03/31 03:58:27;;;;;;;28.50;26.20;;;;;;;;;;5057065;28;20428;-74
2021/03/31 04:00:54;;;;;;;27.30;25.10;;;;;;;;;;5075047;28;20785;-74
2021/03/31 04:03:21;;;;;;;28.63;26.23;;;;;;;;;;5074877;28;20448;-74
2021/03/31 04:05:48;;;;;;;27.77;25.43;;;;;;;;;;5074791;28;20938;-74
2021/03/31 04:08:15;;;;;;;27.13;24.93;;;;;;;;;;5056927;28;20444;-75
2021/03/31 04:10:44;;;;;;;26.87;24.60;;;;;;;;;;5074632;28;20484;-74
2021/03/31 04:13:12;;;;;;;27.20;24.50;;;;;;;;;;5074446;28;20438;-74
2021/03/31 04:15:40;;;;;;;28.50;26.10;;;;;;;;;;5074689;28;20433;-75
2021/03/31 04:18:08;;;;;;;28.13;26.00;;;;;;;;;;5074528;28;20420;-74
2021/03/31 04:20:36;;;;;;;26.93;24.77;;;;;;;;;;5056148;28;20492;-74
2021/03/31 04:23:06;;;;;;;26.90;24.80;;;;;;;;;;5074175;28;20820;-75
2021/03/31 04:25:33;;;;;;;26.80;24.70;;;;;;;;;;5074122;28;20892;-74
2021/03/31 04:28:03;;;;;;;26.83;24.93;;;;;;;;;;5073912;28;20796;-75
2021/03/31 04:30:30;;;;;;;26.23;24.33;;;;;;;;;;5074925;28;20481;-75
2021/03/31 04:32:57;;;;;;;26.53;24.73;;;;;;;;;;5074473;28;20449;-75
2021/03/31 04:35:24;;;;;;;27.37;25.10;;;;;;;;;;5074271;28;20436;-74
2021/03/31 04:37:51;;;;;;;27.57;25.60;;;;;;;;;;5074349;28;20441;-74
2021/03/31 04:40:20;;;;;;;26.63;24.63;;;;;;;;;;5074073;28;20423;-74
2021/03/31 04:42:47;;;;;;;26.08;24.08;;;;;;;;;;5074018;28;20419;-74
2021/03/31 04:45:15;;;;;;;25.80;24.00;;;;;;;;;;5073913;28;20202;-74
2021/03/31 04:47:42;;;;;;;27.33;25.23;;;;;;;;;;5074214;28;20411;-75
2021/03/31 04:50:10;;;;;;;26.00;23.95;;;;;;;;;;5073651;28;20215;-75
2021/03/31 04:52:37;;;;;;;26.10;24.17;;;;;;;;;;5073881;28;20557;-75
2021/03/31 04:55:04;;;;;;;26.23;24.23;;;;;;;;;;5073866;28;20429;-74
2021/03/31 04:57:31;;;;;;;26.93;24.97;;;;;;;;;;5073839;28;20474;-75
2021/03/31 04:59:58;;;;;;;25.95;23.83;;;;;;;;;;5072961;28;20437;-74
2021/03/31 05:02:26;;;;;;;25.80;23.70;;;;;;;;;;5073866;28;20591;-74
2021/03/31 05:04:53;;;;;;;26.47;24.50;;;;;;;;;;5073958;28;20473;-75
2021/03/31 05:07:20;;;;;;;25.70;23.80;;;;;;;;;;5073899;28;20440;-74
2021/03/31 05:09:46;;;;;;;25.70;23.70;;;;;;;;;;5073454;28;20493;-74
2021/03/31 05:12:13;;;;;;;25.67;23.87;;;;;;;;;;5073836;28;20782;-74
2021/03/31 05:14:40;;;;;;;25.70;23.40;;;;;;;;;;5074246;28;20416;-74
2021/03/31 05:17:07;;;;;;;26.42;24.30;;;;;;;;;;5073697;28;20445;-75
2021/03/31 05:19:35;;;;;;;25.30;23.23;;;;;;;;;;5073322;28;20231;-74
2021/03/31 05:22:02;;;;;;;25.80;23.83;;;;;;;;;;5073424;28;20433;-74
2021/03/31 05:24:29;;;;;;;25.50;23.40;;;;;;;;;;5073780;28;20483;-74
2021/03/31 05:26:56;;;;;;;25.30;23.50;;;;;;;;;;5073467;28;20408;-73
2021/03/31 05:29:23;;;;;;;25.30;23.30;;;;;;;;;;5073659;28;20481;-74
2021/03/31 05:31:50;;;;;;;26.07;24.10;;;;;;;;;;5073234;28;20441;-74
2021/03/31 05:34:17;;;;;;;25.05;23.08;;;;;;;;;;5073213;28;20423;-74
2021/03/31 05:36:44;;;;;;;27.60;25.47;;;;;;;;;;5073673;28;20186;-74
2021/03/31 05:39:11;;;;;;;27.10;25.00;;;;;;;;;;5073334;28;20452;-73
2021/03/31 05:41:38;;;;;;;25.97;23.80;;;;;;;;;;5073426;28;20480;-74
2021/03/31 05:44:05;;;;;;;28.03;25.83;;;;;;;;;;5073259;28;20423;-74
2021/03/31 05:46:32;;;;;;;24.53;22.60;;;;;;;;;;5073381;28;20433;-74
2021/03/31 05:48:59;;;;;;;25.20;23.40;;;;;;;;;;5073116;28;20915;-73
2021/03/31 05:51:26;;;;;;;25.73;23.63;;;;;;;;;;5073357;28;20408;-74
2021/03/31 05:53:54;;;;;;;25.70;23.80;;;;;;;;;;5073344;28;20456;-73
2021/03/31 05:56:22;;;;;;;24.90;23.10;;;;;;;;;;5073379;28;20490;-74
2021/03/31 05:58:49;;;;;;;25.50;23.47;;;;;;;;;;5072884;28;20484;-74
2021/03/31 06:01:16;;;;;;;25.17;23.43;;;;;;;;;;5073173;28;20430;-73
2021/03/31 06:03:44;;;;;;;25.93;23.93;;;;;;;;;;5073375;28;20401;-74
2021/03/31 06:06:11;;;;;;;26.07;24.10;;;;;;;;;;5073059;28;20454;-74
2021/03/31 06:08:38;;;;;;;26.60;24.40;;;;;;;;;;5072923;28;20915;-73
2021/03/31 06:11:06;;;;;;;28.23;25.70;;;;;;;;;;5074378;28;20247;-74
2021/03/31 06:13:52;;;;;;;25.10;23.30;;;;;;;;;;5076995;28;20447;-73
2021/03/31 06:16:32;;;;;;;24.97;23.00;;;;;;;;;;5076603;28;20436;-73
2021/03/31 06:19:15;;;;;;;26.47;24.50;;;;;;;;;;5076377;28;20452;-73
2021/03/31 06:21:43;;;;;;;25.90;23.70;;;;;;;;;;5076655;28;20416;-74
2021/03/31 06:24:19;;;;;;;26.13;24.27;;;;;;;;;;5076448;28;20480;-73
2021/03/31 06:26:47;;;;;;;25.57;23.60;;;;;;;;;;5076690;28;20423;-73
2021/03/31 06:29:14;;;;;;;25.60;23.47;;;;;;;;;;5058953;28;20568;-74
2021/03/31 06:31:42;;;;;;;25.50;23.60;;;;;;;;;;5076406;28;20494;-74
2021/03/31 06:34:10;;;;;;;26.07;24.07;;;;;;;;;;5076307;28;20419;-73
2021/03/31 06:36:38;;;;;;;25.77;23.43;;;;;;;;;;5076690;28;20460;-74
2021/03/31 06:39:21;;;;;;;25.20;23.20;;;;;;;;;;5076290;28;20478;-74
2021/03/31 06:41:58;;;;;;;24.83;23.07;;;;;;;;;;5076426;28;20448;-73
2021/03/31 06:44:38;;;;;;;29.57;27.20;;;;;;;;;;5076155;28;20423;-74
2021/03/31 06:47:12;;;;;;;26.27;24.27;;;;;;;;;;5076112;28;20739;-73
2021/03/31 06:49:39;;;;;;;26.87;24.90;;;;;;;;;;5076225;28;20481;-74
2021/03/31 06:52:06;;;;;;;26.67;24.50;;;;;;;;;;5076308;28;20454;-74
2021/03/31 06:54:41;;;;;;;26.17;24.03;;;;;;;;;;5076348;28;20430;-74
2021/03/31 06:57:09;;;;;;;26.73;24.63;;;;;;;;;;5075802;28;20979;-73
2021/03/31 06:59:36;;;;;;;25.80;24.00;;;;;;;;;;5076046;28;20469;-74
2021/03/31 07:02:05;;;;;;;25.83;24.03;;;;;;;;;;5076460;28;20413;-74
2021/03/31 07:04:32;;;;;;;26.13;23.80;;;;;;;;;;5075673;28;20933;-74
2021/03/31 07:07:00;;;;;;;26.43;24.53;;;;;;;;;;5075832;28;20894;-73
2021/03/31 07:09:26;;;;;;;26.50;24.60;;;;;;;;;;5075972;28;20469;-74
2021/03/31 07:11:53;;;;;;;27.93;25.83;;;;;;;;;;5075613;28;20408;-74
2021/03/31 07:14:21;;;;;;;27.03;25.00;;;;;;;;;;5075821;28;20413;-74
2021/03/31 07:16:49;;;;;;;28.60;26.13;;;;;;;;;;5075550;28;20959;-71
2021/03/31 07:19:15;;;;;;;27.50;25.53;;;;;;;;;;5075351;28;20455;-73
2021/03/31 07:21:42;;;;;;;27.50;25.40;;;;;;;;;;5075417;28;20436;-73
2021/03/31 07:24:10;;;;;;;26.97;24.93;;;;;;;;;;5074552;28;20409;-73
2021/03/31 07:26:36;;;;;;;26.20;24.40;;;;;;;;;;5075144;28;20453;-72
2021/03/31 07:29:03;;;;;;;27.70;25.40;;;;;;;;;;5075266;28;20408;-72
2021/03/31 07:31:31;;;;;;;26.97;25.07;;;;;;;;;;5075553;28;20412;-75
2021/03/31 07:34:08;;;;;;;27.90;25.70;;;;;;;;;;5075531;28;20413;-72
2021/03/31 07:36:36;;;;;;;27.73;25.20;;;;;;;;;;5057131;28;20416;-72
2021/03/31 07:39:06;;;;;;;27.87;25.63;;;;;;;;;;5075350;28;20426;-72
2021/03/31 07:41:35;;;;;;;27.50;25.57;;;;;;;;;;5074963;28;20899;-72
2021/03/31 07:44:03;;;;;;;27.17;25.17;;;;;;;;;;5075037;28;20985;-72
2021/03/31 07:46:31;;;;;;;28.00;25.90;;;;;;;;;;5057539;28;20418;-72
2021/03/31 07:49:00;;;;;;;28.23;25.87;;;;;;;;;;5075357;28;20421;-72
2021/03/31 07:51:28;;;;;;;27.47;25.37;;;;;;;;;;5075023;28;20416;-72
2021/03/31 07:53:55;;;;;;;27.87;25.73;;;;;;;;;;5075221;28;20408;-73
2021/03/31 07:56:27;;;;;;;28.60;26.50;;;;;;;;;;5074587;28;20943;-72
2021/03/31 07:59:13;;;;;;;28.27;26.07;;;;;;;;;;5074746;28;20419;-72
2021/03/31 08:01:41;;;;;;;26.80;24.80;;;;;;;;;;5074860;28;20928;-72
2021/03/31 08:04:10;;;;;;;28.37;26.37;;;;;;;;;;5075180;28;20416;-72
2021/03/31 08:06:37;;;;;;;29.23;26.93;;;;;;;;;;5074517;28;20412;-72
2021/03/31 08:09:06;;;;;;;29.53;27.33;;;;;;;;;;5074402;28;20409;-73
2021/03/31 08:11:47;;;;;;;28.80;26.43;;;;;;;;;;5074763;28;20472;-72
2021/03/31 08:14:15;;;;;;;28.47;26.43;;;;;;;;;;5074340;28;20433;-72
2021/03/31 08:16:43;;;;;;;30.47;28.00;;;;;;;;;;5074552;28;20422;-73
2021/03/31 08:19:13;;;;;;;29.13;26.93;;;;;;;;;;5071033;28;20487;-71
2021/03/31 08:21:41;;;;;;;29.63;27.13;;;;;;;;;;5074190;28;20445;-72
2021/03/31 08:24:08;;;;;;;28.50;26.40;;;;;;;;;;5074504;28;20949;-72
2021/03/31 08:26:37;;;;;;;27.37;25.20;;;;;;;;;;5074032;28;20409;-72
2021/03/31 08:29:05;;;;;;;28.63;26.53;;;;;;;;;;5074372;28;20424;-73
2021/03/31 08:31:36;;;;;;;30.63;27.43;;;;;;;;;;5074151;28;20756;-72
2021/03/31 08:34:03;;;;;;;29.40;26.97;;;;;;;;;;5074052;28;20479;-72
2021/03/31 08:36:31;;;;;;;29.47;27.33;;;;;;;;;;5073911;28;20414;-72
2021/03/31 08:38:59;;;;;;;28.70;26.40;;;;;;;;;;5074141;28;20413;-73
2021/03/31 08:41:28;;;;;;;29.63;27.23;;;;;;;;;;5073967;28;20573;-72
2021/03/31 08:44:16;;;;;;;26.83;24.80;;;;;;;;;;5074241;28;20410;-72
2021/03/31 08:46:43;;;;;;;27.97;25.97;;;;;;;;;;5073749;28;20432;-72
2021/03/31 08:49:21;;;;;;;29.00;26.70;;;;;;;;;;5055884;28;20454;-73
2021/03/31 08:51:50;;;;;;;26.60;24.70;;;;;;;;;;5073937;28;20780;-72
2021/03/31 08:54:17;;;;;;;28.50;26.50;;;;;;;;;;5073971;28;20474;-72
2021/03/31 08:56:48;;;;;;;29.60;27.17;;;;;;;;;;5073565;28;20895;-72
2021/03/31 08:59:15;;;;;;;28.40;26.30;;;;;;;;;;5073993;28;20409;-72
2021/03/31 09:01:42;;;;;;;29.23;26.80;;;;;;;;;;5073501;28;20415;-72
2021/03/31 09:04:17;;;;;;;29.77;27.43;;;;;;;;;;5073635;28;20773;-72
2021/03/31 09:06:44;;;;;;;30.10;27.83;;;;;;;;;;5073490;28;20441;-72
2021/03/31 09:09:12;;;;;;;30.37;27.87;;;;;;;;;;5073739;28;20457;-72
2021/03/31 09:11:39;;;;;;;29.60;27.17;;;;;;;;;;5073724;28;20440;-72
2021/03/31 09:14:16;;;;;;;29.77;27.57;;;;;;;;;;5073520;28;20449;-72
2021/03/31 09:16:49;;;;;;;31.47;28.90;;;;;;;;;;5073856;28;20413;-72
2021/03/31 09:19:16;;;;;;;30.53;28.03;;;;;;;;;;5073336;28;20463;-72
2021/03/31 09:21:43;;;;;;;30.67;28.23;;;;;;;;;;5073392;28;20768;-72
2021/03/31 09:24:13;;;;;;;31.07;28.03;;;;;;;;;;5073851;28;20417;-73
2021/03/31 09:26:41;;;;;;;30.87;28.17;;;;;;;;;;5072993;28;20444;-72
2021/03/31 09:29:14;;;;;;;29.43;27.03;;;;;;;;;;5072637;28;20423;-73
2021/03/31 09:31:41;;;;;;;30.33;27.93;;;;;;;;;;5055479;28;20402;-72
2021/03/31 09:34:09;;;;;;;29.83;27.23;;;;;;;;;;5073105;28;20452;-72
2021/03/31 09:36:37;;;;;;;32.20;29.50;;;;;;;;;;5073484;28;20421;-72
2021/03/31 09:39:05;;;;;;;30.70;28.13;;;;;;;;;;5073144;28;20441;-72
2021/03/31 09:41:32;;;;;;;31.23;28.47;;;;;;;;;;5072974;28;20798;-72
2021/03/31 09:44:00;;;;;;;31.80;28.67;;;;;;;;;;5073321;28;20421;-72
2021/03/31 09:46:27;;;;;;;31.80;29.10;;;;;;;;;;5075361;28;20420;-72
2021/03/31 09:48:54;;;;;;;31.87;29.27;;;;;;;;;;5077202;28;20766;-73
2021/03/31 09:51:22;;;;;;;31.70;28.97;;;;;;;;;;5077130;28;20453;-72
2021/03/31 09:53:49;;;;;;;30.70;28.20;;;;;;;;;;5077351;28;20466;-72
2021/03/31 09:56:17;;;;;;;30.27;27.90;;;;;;;;;;5077164;28;20453;-73
2021/03/31 09:58:48;;;;;;;31.30;28.70;;;;;;;;;;5076869;28;20410;-72
2021/03/31 10:01:18;;;;;;;32.23;29.47;;;;;;;;;;5077336;28;20455;-73
2021/03/31 10:03:46;;;;;;;32.97;30.00;;;;;;;;;;5076856;28;20449;-73
2021/03/31 10:06:20;;;;;;;33.13;30.37;;;;;;;;;;5077236;28;20420;-72
2021/03/31 10:08:46;;;;;;;32.67;29.90;;;;;;;;;;5076679;28;20451;-73
2021/03/31 10:11:28;;;;;;;32.10;29.60;;;;;;;;;;5076697;28;20465;-72
2021/03/31 10:13:55;;;;;;;32.63;29.87;;;;;;;;;;5075539;28;20430;-72
2021/03/31 10:16:30;;;;;;;33.77;31.00;;;;;;;;;;5058949;28;20789;-72
2021/03/31 10:18:57;;;;;;;31.57;28.97;;;;;;;;;;5076514;28;20409;-73
2021/03/31 10:21:30;;;;;;;33.63;30.70;;;;;;;;;;5076609;28;20894;-72
2021/03/31 10:23:57;;;;;;;32.07;29.43;;;;;;;;;;5058910;28;20482;-72
2021/03/31 10:26:26;;;;;;;34.07;31.07;;;;;;;;;;5076724;28;20438;-72
2021/03/31 10:28:54;;;;;;;33.20;30.20;;;;;;;;;;5076820;28;20481;-73
2021/03/31 10:31:22;;;;;;;34.17;31.30;;;;;;;;;;5076676;28;20535;-72
2021/03/31 10:33:49;;;;;;;32.00;29.50;;;;;;;;;;5076361;28;20425;-72
2021/03/31 10:37:00;;;;;;;34.27;31.37;;;;;;;;;;5076342;28;20435;-72
2021/03/31 10:50:43;;;;;;;32.80;30.07;;;;;;;;;;4994589;28;20546;-73
2021/03/31 10:53:11;;;;;;;33.60;30.30;;;;;;;;;;4994944;28;20455;-72
2021/03/31 10:55:40;;;;;;;32.63;29.50;;;;;;;;;;4994523;28;20448;-73
2021/03/31 10:58:07;;;;;;;35.53;32.03;;;;;;;;;;4993060;28;20448;-72
2021/03/31 11:00:35;;;;;;;33.77;30.80;;;;;;;;;;4994297;28;20945;-72
2021/03/31 11:03:02;;;;;;;34.27;31.47;;;;;;;;;;4994627;28;20449;-72
2021/03/31 11:05:29;;;;;;;34.50;31.60;;;;;;;;;;4994309;28;20431;-72
2021/03/31 11:07:57;;;;;;;33.87;31.00;;;;;;;;;;4994540;28;20421;-72
2021/03/31 11:10:26;;;;;;;35.17;31.83;;;;;;;;;;5006235;28;20498;-73
2021/03/31 11:12:54;;;;;;;34.43;31.00;;;;;;;;;;5013834;28;20481;-72
2021/03/31 11:15:24;;;;;;;33.67;30.97;;;;;;;;;;5014047;28;20823;-73
2021/03/31 11:20:58;;;;;;;33.80;30.70;;;;;;;;;;5012910;28;20469;-71
2021/03/31 11:26:10;;;;;;;33.43;30.77;;;;;;;;;;5020844;28;20504;-71
2021/03/31 11:28:37;;;;;;;32.60;30.00;;;;;;;;;;5075793;28;20411;-73
2021/03/31 11:31:05;;;;;;;33.67;31.03;;;;;;;;;;5074515;28;20488;-71
2021/03/31 11:33:32;;;;;;;32.50;30.00;;;;;;;;;;5075127;28;20446;-73
2021/03/31 11:35:59;;;;;;;34.23;31.33;;;;;;;;;;5075215;28;20889;-76
2021/03/31 11:38:27;;;;;;;33.07;30.53;;;;;;;;;;5075336;28;20432;-78
2021/03/31 11:40:54;;;;;;;34.00;31.10;;;;;;;;;;5075417;28;20463;-83
2021/03/31 11:43:21;;;;;;;33.90;31.20;;;;;;;;;;5075299;28;20435;-73
2021/03/31 11:45:48;;;;;;;36.63;33.60;;;;;;;;;;5075443;28;20463;-72
2021/03/31 11:48:15;;;;;;;35.03;32.33;;;;;;;;;;5057341;28;20431;-72
2021/03/31 11:50:42;;;;;;;34.20;31.60;;;;;;;;;;5075077;28;20491;-73
2021/03/31 11:53:09;;;;;;;34.97;31.97;;;;;;;;;;5075150;28;20430;-73
2021/03/31 11:55:37;;;;;;;34.20;31.50;;;;;;;;;;5074763;28;20451;-73
2021/03/31 11:58:04;;;;;;;34.03;31.17;;;;;;;;;;5057061;28;20424;-73
2021/03/31 12:00:31;;;;;;;34.57;31.73;;;;;;;;;;5074607;28;20942;-73
2021/03/31 12:02:58;;;;;;;35.90;33.10;;;;;;;;;;5074887;28;20518;-71
2021/03/31 12:05:25;;;;;;;35.70;32.90;;;;;;;;;;5074798;28;20412;-72
2021/03/31 12:07:52;;;;;;;33.60;30.70;;;;;;;;;;5074750;28;20780;-73
2021/03/31 12:10:19;;;;;;;34.03;31.23;;;;;;;;;;5056520;28;20454;-72
2021/03/31 12:12:47;;;;;;;36.07;32.93;;;;;;;;;;5040506;28;20421;-72
2021/03/31 12:15:14;;;;;;;33.40;30.80;;;;;;;;;;5056842;28;20412;-73
2021/03/31 12:17:42;;;;;;;35.97;32.97;;;;;;;;;;5074606;28;20508;-73
2021/03/31 12:20:10;;;;;;;35.30;32.13;;;;;;;;;;5056274;28;20454;-73
2021/03/31 12:22:38;;;;;;;35.67;32.67;;;;;;;;;;5056700;28;20792;-73
2021/03/31 12:25:05;;;;;;;33.50;30.87;;;;;;;;;;5074452;28;20410;-73
2021/03/31 12:27:33;;;;;;;32.97;30.27;;;;;;;;;;5074026;28;20489;-73
2021/03/31 12:30:01;;;;;;;33.90;31.40;;;;;;;;;;5074181;28;20504;-72
2021/03/31 12:32:28;;;;;;;33.73;31.20;;;;;;;;;;5074420;28;20451;-74
2021/03/31 12:34:58;;;;;;;34.47;31.77;;;;;;;;;;5072891;28;20444;-72
2021/03/31 12:37:27;;;;;;;34.67;31.87;;;;;;;;;;5074239;28;20980;-74
2021/03/31 12:39:55;;;;;;;33.20;30.67;;;;;;;;;;5074605;28;20453;-74
2021/03/31 12:42:24;;;;;;;36.70;33.60;;;;;;;;;;5077330;28;20409;-73
2021/03/31 12:44:53;;;;;;;32.90;30.20;;;;;;;;;;5056291;28;20447;-73
2021/03/31 12:47:22;;;;;;;32.93;30.17;;;;;;;;;;5040024;28;20436;-73
2021/03/31 12:49:50;;;;;;;34.37;31.60;;;;;;;;;;5073731;28;20425;-72
2021/03/31 12:52:23;;;;;;;34.20;31.30;;;;;;;;;;5056680;28;20440;-73
2021/03/31 12:54:53;;;;;;;34.13;31.20;;;;;;;;;;5074054;28;20448;-72
2021/03/31 12:57:21;;;;;;;34.50;31.80;;;;;;;;;;5056774;28;20430;-72
2021/03/31 12:59:48;;;;;;;33.63;30.80;;;;;;;;;;5073956;28;20436;-73
2021/03/31 13:02:15;;;;;;;33.20;30.60;;;;;;;;;;5073551;28;20411;-73
2021/03/31 13:04:43;;;;;;;34.17;31.07;;;;;;;;;;5073836;28;20440;-73
2021/03/31 13:07:10;;;;;;;32.40;29.97;;;;;;;;;;5073921;28;20437;-72
2021/03/31 13:09:37;;;;;;;34.00;31.00;;;;;;;;;;5073687;28;20433;-72
2021/03/31 13:12:07;;;;;;;34.33;31.43;;;;;;;;;;5073490;28;20440;-73
2021/03/31 13:14:58;;;;;;;34.00;31.37;;;;;;;;;;5056524;28;20441;-73
2021/03/31 13:17:36;;;;;;;33.50;30.90;;;;;;;;;;5055547;28;20419;-76
2021/03/31 13:22:54;;;;;;;35.73;32.77;;;;;;;;;;5073514;28;20925;-73
2021/03/31 13:25:24;;;;;;;34.30;31.47;;;;;;;;;;5073301;28;20423;-72
2021/03/31 13:30:44;;;;;;;36.40;33.50;;;;;;;;;;5073224;28;20986;-73
2021/03/31 13:33:14;;;;;;;36.03;33.30;;;;;;;;;;5073607;28;20428;-73
2021/03/31 13:35:47;;;;;;;37.90;33.47;;;;;;;;;;5055421;28;20453;-73
2021/03/31 13:38:18;;;;;;;36.60;33.40;;;;;;;;;;5073307;28;20923;-73
2021/03/31 13:40:45;;;;;;;35.77;32.97;;;;;;;;;;5073476;28;20587;-73
2021/03/31 13:43:12;;;;;;;36.20;33.07;;;;;;;;;;5073504;28;20504;-72
2021/03/31 13:45:39;;;;;;;35.83;32.90;;;;;;;;;;5055470;28;20437;-73
2021/03/31 13:48:10;;;;;;;35.23;32.47;;;;;;;;;;5073498;28;20416;-73
2021/03/31 13:50:37;;;;;;;34.73;31.87;;;;;;;;;;5055397;28;20498;-73
2021/03/31 13:53:05;;;;;;;34.67;31.60;;;;;;;;;;5073109;28;20441;-73
2021/03/31 13:55:34;;;;;;;35.40;32.50;;;;;;;;;;5073397;28;20461;-73
2021/03/31 13:58:02;;;;;;;37.07;33.57;;;;;;;;;;5073242;28;20412;-73
2021/03/31 14:00:30;;;;;;;35.40;32.43;;;;;;;;;;5055237;28;20874;-73
2021/03/31 14:02:57;;;;;;;34.43;30.90;;;;;;;;;;5055269;28;20540;-73
2021/03/31 14:05:24;;;;;;;34.77;31.57;;;;;;;;;;5073034;28;20436;-73
2021/03/31 14:07:52;;;;;;;33.97;30.87;;;;;;;;;;5073267;28;20436;-73
2021/03/31 14:10:20;;;;;;;32.50;29.67;;;;;;;;;;5055170;28;20837;-73
2021/03/31 14:12:49;;;;;;;34.07;31.33;;;;;;;;;;5073283;28;20440;-73
2021/03/31 14:15:17;;;;;;;33.63;30.83;;;;;;;;;;5055320;28;20477;-73
2021/03/31 14:17:44;;;;;;;35.40;32.47;;;;;;;;;;5072917;28;20441;-73
2021/03/31 14:20:12;;;;;;;33.77;30.87;;;;;;;;;;5072629;28;20965;-73
2021/03/31 14:22:39;;;;;;;33.73;31.13;;;;;;;;;;5073104;28;20460;-73
2021/03/31 14:25:06;;;;;;;34.20;31.47;;;;;;;;;;5072461;28;20445;-73
2021/03/31 14:27:35;;;;;;;32.43;29.87;;;;;;;;;;5054760;28;20419;-73
2021/03/31 14:30:02;;;;;;;34.60;31.87;;;;;;;;;;5072952;28;20522;-73
2021/03/31 14:32:29;;;;;;;34.83;32.03;;;;;;;;;;5074301;28;20783;-73
2021/03/31 14:34:56;;;;;;;36.90;33.67;;;;;;;;;;5076474;28;20736;-73
2021/03/31 14:37:22;;;;;;;34.33;31.73;;;;;;;;;;5076624;28;20476;-73
2021/03/31 14:39:49;;;;;;;33.70;31.10;;;;;;;;;;5076120;28;20536;-73
2021/03/31 14:42:17;;;;;;;35.30;32.43;;;;;;;;;;5076208;28;20440;-73
2021/03/31 14:44:44;;;;;;;33.33;30.53;;;;;;;;;;5076357;28;20437;-73
2021/03/31 14:47:11;;;;;;;34.53;31.70;;;;;;;;;;5076414;28;20452;-73